sensor_id;sensor_type;location;lat;lon;timestamp;P1;durP1;ratioP1;P2;durP2;ratioP2
43676;SDS011;29275;48.800;18.102;2023-10-19T00:01:23;7.95;;;5.32;;
43676;SDS011;29275;48.800;18.102;2023-10-19T00:04:30;7.95;;;5.35;;
43676;SDS011;29275;48.800;18.102;2023-10-19T00:07:35;8.63;;;4.25;;
43676;SDS011;29275;48.800;18.102;2023-10-19T00:10:44;11.25;;;5.40;;
43676;SDS011;29275;48.800;18.102;2023-10-19T00:13:50;10.98;;;5.75;;
43676;SDS011;29275;48.800;18.102;2023-10-19T00:16:53;8.93;;;5.57;;
43676;SDS011;29275;48.800;18.102;2023-10-19T00:20:02;10.90;;;5.85;;
43676;SDS011;29275;48.800;18.102;2023-10-19T00:23:24;8.40;;;5.40;;
43676;SDS011;29275;48.800;18.102;2023-10-19T00:26:31;10.77;;;5.18;;
43676;SDS011;29275;48.800;18.102;2023-10-19T00:29:34;9.45;;;6.05;;
43676;SDS011;29275;48.800;18.102;2023-10-19T00:32:42;9.52;;;5.60;;
43676;SDS011;29275;48.800;18.102;2023-10-19T00:35:45;12.38;;;6.30;;
43676;SDS011;29275;48.800;18.102;2023-10-19T00:38:49;11.38;;;5.38;;
43676;SDS011;29275;48.800;18.102;2023-10-19T00:41:55;10.10;;;5.63;;
43676;SDS011;29275;48.800;18.102;2023-10-19T00:45:03;12.85;;;6.47;;
43676;SDS011;29275;48.800;18.102;2023-10-19T00:48:08;11.38;;;6.30;;
43676;SDS011;29275;48.800;18.102;2023-10-19T00:51:14;13.05;;;6.72;;
43676;SDS011;29275;48.800;18.102;2023-10-19T00:54:33;9.20;;;5.72;;
43676;SDS011;29275;48.800;18.102;2023-10-19T00:57:49;13.45;;;5.90;;
43676;SDS011;29275;48.800;18.102;2023-10-19T01:00:52;8.80;;;5.85;;
43676;SDS011;29275;48.800;18.102;2023-10-19T01:04:04;10.68;;;5.72;;
43676;SDS011;29275;48.800;18.102;2023-10-19T01:07:11;13.10;;;5.35;;
43676;SDS011;29275;48.800;18.102;2023-10-19T01:10:30;9.10;;;5.00;;
43676;SDS011;29275;48.800;18.102;2023-10-19T01:13:34;7.55;;;4.60;;
43676;SDS011;29275;48.800;18.102;2023-10-19T01:16:37;8.65;;;5.13;;
43676;SDS011;29275;48.800;18.102;2023-10-19T01:19:54;8.70;;;5.60;;
43676;SDS011;29275;48.800;18.102;2023-10-19T01:26:11;10.45;;;5.57;;
43676;SDS011;29275;48.800;18.102;2023-10-19T01:29:24;8.65;;;5.50;;
43676;SDS011;29275;48.800;18.102;2023-10-19T01:32:49;9.13;;;5.18;;
43676;SDS011;29275;48.800;18.102;2023-10-19T01:35:54;8.00;;;5.15;;
43676;SDS011;29275;48.800;18.102;2023-10-19T01:39:16;9.18;;;5.35;;
43676;SDS011;29275;48.800;18.102;2023-10-19T01:42:25;9.65;;;5.13;;
43676;SDS011;29275;48.800;18.102;2023-10-19T01:45:28;10.57;;;5.07;;
43676;SDS011;29275;48.800;18.102;2023-10-19T01:48:34;11.13;;;5.28;;
43676;SDS011;29275;48.800;18.102;2023-10-19T01:51:38;9.73;;;5.00;;
43676;SDS011;29275;48.800;18.102;2023-10-19T01:54:44;8.60;;;5.15;;
43676;SDS011;29275;48.800;18.102;2023-10-19T01:57:47;7.72;;;5.28;;
43676;SDS011;29275;48.800;18.102;2023-10-19T02:00:51;11.88;;;6.25;;
43676;SDS011;29275;48.800;18.102;2023-10-19T02:04:05;10.13;;;6.00;;
43676;SDS011;29275;48.800;18.102;2023-10-19T02:07:11;14.07;;;5.60;;
43676;SDS011;29275;48.800;18.102;2023-10-19T02:10:20;9.55;;;5.97;;
43676;SDS011;29275;48.800;18.102;2023-10-19T02:13:24;8.90;;;4.72;;
43676;SDS011;29275;48.800;18.102;2023-10-19T02:16:27;10.55;;;5.20;;
43676;SDS011;29275;48.800;18.102;2023-10-19T02:22:37;10.55;;;5.13;;
43676;SDS011;29275;48.800;18.102;2023-10-19T02:25:42;7.82;;;5.55;;
43676;SDS011;29275;48.800;18.102;2023-10-19T02:28:46;10.13;;;6.28;;
43676;SDS011;29275;48.800;18.102;2023-10-19T02:31:49;11.65;;;6.78;;
43676;SDS011;29275;48.800;18.102;2023-10-19T02:35:01;11.13;;;6.43;;
43676;SDS011;29275;48.800;18.102;2023-10-19T02:38:11;13.75;;;7.43;;
43676;SDS011;29275;48.800;18.102;2023-10-19T02:41:18;13.63;;;7.93;;
43676;SDS011;29275;48.800;18.102;2023-10-19T02:44:23;13.98;;;8.00;;
43676;SDS011;29275;48.800;18.102;2023-10-19T02:47:34;14.13;;;7.90;;
43676;SDS011;29275;48.800;18.102;2023-10-19T02:50:37;12.05;;;8.10;;
43676;SDS011;29275;48.800;18.102;2023-10-19T02:53:44;14.40;;;9.05;;
43676;SDS011;29275;48.800;18.102;2023-10-19T02:57:02;13.52;;;8.93;;
43676;SDS011;29275;48.800;18.102;2023-10-19T03:00:13;16.65;;;9.65;;
43676;SDS011;29275;48.800;18.102;2023-10-19T03:03:16;12.77;;;8.90;;
43676;SDS011;29275;48.800;18.102;2023-10-19T03:06:23;13.90;;;9.70;;
43676;SDS011;29275;48.800;18.102;2023-10-19T03:09:26;16.92;;;10.20;;
43676;SDS011;29275;48.800;18.102;2023-10-19T03:12:41;18.13;;;10.25;;
43676;SDS011;29275;48.800;18.102;2023-10-19T03:15:45;16.17;;;10.73;;
43676;SDS011;29275;48.800;18.102;2023-10-19T03:18:48;13.80;;;9.13;;
43676;SDS011;29275;48.800;18.102;2023-10-19T03:21:59;17.50;;;9.85;;
43676;SDS011;29275;48.800;18.102;2023-10-19T03:25:08;15.82;;;9.88;;
43676;SDS011;29275;48.800;18.102;2023-10-19T03:28:34;19.73;;;10.90;;
43676;SDS011;29275;48.800;18.102;2023-10-19T03:31:38;16.20;;;11.32;;
43676;SDS011;29275;48.800;18.102;2023-10-19T03:34:48;16.95;;;11.57;;
43676;SDS011;29275;48.800;18.102;2023-10-19T03:37:56;16.52;;;10.80;;
43676;SDS011;29275;48.800;18.102;2023-10-19T03:41:03;14.65;;;10.75;;
43676;SDS011;29275;48.800;18.102;2023-10-19T03:44:11;18.02;;;12.40;;
43676;SDS011;29275;48.800;18.102;2023-10-19T03:47:26;16.08;;;11.38;;
43676;SDS011;29275;48.800;18.102;2023-10-19T03:50:44;16.20;;;12.38;;
43676;SDS011;29275;48.800;18.102;2023-10-19T03:53:47;19.25;;;12.00;;
43676;SDS011;29275;48.800;18.102;2023-10-19T03:56:57;14.10;;;11.40;;
43676;SDS011;29275;48.800;18.102;2023-10-19T04:00:06;18.00;;;11.90;;
43676;SDS011;29275;48.800;18.102;2023-10-19T04:03:13;21.30;;;12.52;;
43676;SDS011;29275;48.800;18.102;2023-10-19T04:06:17;20.00;;;13.80;;
43676;SDS011;29275;48.800;18.102;2023-10-19T04:09:25;15.95;;;11.63;;
43676;SDS011;29275;48.800;18.102;2023-10-19T04:12:32;17.67;;;12.60;;
43676;SDS011;29275;48.800;18.102;2023-10-19T04:15:37;20.10;;;14.40;;
43676;SDS011;29275;48.800;18.102;2023-10-19T04:18:45;19.73;;;14.02;;
43676;SDS011;29275;48.800;18.102;2023-10-19T04:21:48;18.40;;;13.30;;
43676;SDS011;29275;48.800;18.102;2023-10-19T04:25:00;19.00;;;13.88;;
43676;SDS011;29275;48.800;18.102;2023-10-19T04:28:06;16.23;;;11.30;;
43676;SDS011;29275;48.800;18.102;2023-10-19T04:31:08;19.13;;;13.02;;
43676;SDS011;29275;48.800;18.102;2023-10-19T04:34:17;21.00;;;13.27;;
43676;SDS011;29275;48.800;18.102;2023-10-19T04:37:23;18.15;;;13.52;;
43676;SDS011;29275;48.800;18.102;2023-10-19T04:40:26;23.00;;;13.73;;
43676;SDS011;29275;48.800;18.102;2023-10-19T04:43:37;21.05;;;13.45;;
43676;SDS011;29275;48.800;18.102;2023-10-19T04:46:46;18.52;;;13.00;;
43676;SDS011;29275;48.800;18.102;2023-10-19T04:49:49;19.55;;;13.50;;
43676;SDS011;29275;48.800;18.102;2023-10-19T04:52:54;19.38;;;13.20;;
43676;SDS011;29275;48.800;18.102;2023-10-19T04:55:57;19.17;;;13.93;;
43676;SDS011;29275;48.800;18.102;2023-10-19T04:59:03;18.85;;;14.18;;
43676;SDS011;29275;48.800;18.102;2023-10-19T05:02:07;20.00;;;13.60;;
43676;SDS011;29275;48.800;18.102;2023-10-19T05:05:10;19.67;;;12.00;;
43676;SDS011;29275;48.800;18.102;2023-10-19T05:08:13;16.90;;;11.75;;
43676;SDS011;29275;48.800;18.102;2023-10-19T05:11:18;17.80;;;11.65;;
43676;SDS011;29275;48.800;18.102;2023-10-19T05:14:21;16.08;;;11.82;;
43676;SDS011;29275;48.800;18.102;2023-10-19T05:17:27;14.82;;;10.95;;
43676;SDS011;29275;48.800;18.102;2023-10-19T05:20:33;12.50;;;9.90;;
43676;SDS011;29275;48.800;18.102;2023-10-19T05:23:35;14.70;;;10.23;;
43676;SDS011;29275;48.800;18.102;2023-10-19T05:26:38;15.50;;;11.20;;
43676;SDS011;29275;48.800;18.102;2023-10-19T05:29:42;15.73;;;11.25;;
43676;SDS011;29275;48.800;18.102;2023-10-19T05:32:44;15.23;;;12.00;;
43676;SDS011;29275;48.800;18.102;2023-10-19T05:35:52;14.55;;;10.80;;
43676;SDS011;29275;48.800;18.102;2023-10-19T05:38:57;13.88;;;10.63;;
43676;SDS011;29275;48.800;18.102;2023-10-19T05:42:00;15.52;;;11.40;;
43676;SDS011;29275;48.800;18.102;2023-10-19T05:45:07;13.63;;;10.43;;
43676;SDS011;29275;48.800;18.102;2023-10-19T05:48:10;14.95;;;10.68;;
43676;SDS011;29275;48.800;18.102;2023-10-19T05:51:17;15.02;;;10.05;;
43676;SDS011;29275;48.800;18.102;2023-10-19T05:54:23;14.77;;;10.68;;
43676;SDS011;29275;48.800;18.102;2023-10-19T05:57:27;12.48;;;10.45;;
43676;SDS011;29275;48.800;18.102;2023-10-19T06:00:30;13.27;;;9.85;;
43676;SDS011;29275;48.800;18.102;2023-10-19T06:03:34;12.48;;;10.07;;
43676;SDS011;29275;48.800;18.102;2023-10-19T06:06:37;12.75;;;9.82;;
43676;SDS011;29275;48.800;18.102;2023-10-19T06:09:40;14.30;;;10.77;;
43676;SDS011;29275;48.800;18.102;2023-10-19T06:12:47;15.73;;;11.80;;
43676;SDS011;29275;48.800;18.102;2023-10-19T06:15:53;14.00;;;10.65;;
43676;SDS011;29275;48.800;18.102;2023-10-19T06:18:56;13.27;;;10.23;;
43676;SDS011;29275;48.800;18.102;2023-10-19T06:21:59;13.88;;;9.63;;
43676;SDS011;29275;48.800;18.102;2023-10-19T06:25:02;13.68;;;10.50;;
43676;SDS011;29275;48.800;18.102;2023-10-19T06:28:08;14.83;;;10.97;;
43676;SDS011;29275;48.800;18.102;2023-10-19T06:31:17;15.52;;;10.65;;
43676;SDS011;29275;48.800;18.102;2023-10-19T06:34:23;16.52;;;11.20;;
43676;SDS011;29275;48.800;18.102;2023-10-19T06:37:27;14.80;;;11.27;;
43676;SDS011;29275;48.800;18.102;2023-10-19T06:40:33;16.27;;;10.70;;
43676;SDS011;29275;48.800;18.102;2023-10-19T06:43:42;14.40;;;9.63;;
43676;SDS011;29275;48.800;18.102;2023-10-19T06:46:50;13.20;;;9.43;;
43676;SDS011;29275;48.800;18.102;2023-10-19T06:49:57;14.90;;;10.50;;
43676;SDS011;29275;48.800;18.102;2023-10-19T06:53:03;12.45;;;9.05;;
43676;SDS011;29275;48.800;18.102;2023-10-19T06:56:13;14.13;;;10.02;;
43676;SDS011;29275;48.800;18.102;2023-10-19T06:59:22;13.00;;;10.27;;
43676;SDS011;29275;48.800;18.102;2023-10-19T07:02:30;14.35;;;10.40;;
43676;SDS011;29275;48.800;18.102;2023-10-19T07:05:38;15.95;;;11.27;;
43676;SDS011;29275;48.800;18.102;2023-10-19T07:08:44;17.55;;;10.35;;
43676;SDS011;29275;48.800;18.102;2023-10-19T07:11:58;16.15;;;11.50;;
43676;SDS011;29275;48.800;18.102;2023-10-19T07:15:06;15.65;;;10.55;;
43676;SDS011;29275;48.800;18.102;2023-10-19T07:18:30;13.57;;;9.90;;
43676;SDS011;29275;48.800;18.102;2023-10-19T07:21:36;14.98;;;10.85;;
43676;SDS011;29275;48.800;18.102;2023-10-19T07:24:44;16.23;;;10.73;;
43676;SDS011;29275;48.800;18.102;2023-10-19T07:27:51;12.30;;;9.65;;
43676;SDS011;29275;48.800;18.102;2023-10-19T07:30:57;14.00;;;9.70;;
43676;SDS011;29275;48.800;18.102;2023-10-19T07:34:02;13.93;;;10.25;;
43676;SDS011;29275;48.800;18.102;2023-10-19T07:37:10;15.32;;;10.98;;
43676;SDS011;29275;48.800;18.102;2023-10-19T07:40:17;13.52;;;9.68;;
43676;SDS011;29275;48.800;18.102;2023-10-19T07:43:21;13.95;;;10.27;;
43676;SDS011;29275;48.800;18.102;2023-10-19T07:46:30;12.75;;;9.65;;
43676;SDS011;29275;48.800;18.102;2023-10-19T07:49:37;11.35;;;9.30;;
43676;SDS011;29275;48.800;18.102;2023-10-19T07:52:44;12.93;;;9.55;;
43676;SDS011;29275;48.800;18.102;2023-10-19T07:55:51;14.32;;;10.05;;
43676;SDS011;29275;48.800;18.102;2023-10-19T07:58:55;14.40;;;10.43;;
43676;SDS011;29275;48.800;18.102;2023-10-19T08:01:59;13.30;;;9.35;;
43676;SDS011;29275;48.800;18.102;2023-10-19T08:05:04;12.52;;;8.88;;
43676;SDS011;29275;48.800;18.102;2023-10-19T08:08:09;12.05;;;9.13;;
43676;SDS011;29275;48.800;18.102;2023-10-19T08:11:17;11.38;;;8.75;;
43676;SDS011;29275;48.800;18.102;2023-10-19T08:14:22;13.10;;;9.93;;
43676;SDS011;29275;48.800;18.102;2023-10-19T08:17:29;12.60;;;9.70;;
43676;SDS011;29275;48.800;18.102;2023-10-19T08:20:33;15.95;;;9.98;;
43676;SDS011;29275;48.800;18.102;2023-10-19T08:23:42;11.02;;;8.55;;
43676;SDS011;29275;48.800;18.102;2023-10-19T08:26:47;12.90;;;10.07;;
43676;SDS011;29275;48.800;18.102;2023-10-19T08:29:50;14.10;;;10.25;;
43676;SDS011;29275;48.800;18.102;2023-10-19T08:32:53;13.32;;;10.02;;
43676;SDS011;29275;48.800;18.102;2023-10-19T08:35:59;14.52;;;9.95;;
43676;SDS011;29275;48.800;18.102;2023-10-19T08:39:05;14.38;;;9.93;;
43676;SDS011;29275;48.800;18.102;2023-10-19T08:42:10;13.27;;;10.25;;
43676;SDS011;29275;48.800;18.102;2023-10-19T08:45:12;15.82;;;11.70;;
43676;SDS011;29275;48.800;18.102;2023-10-19T08:48:16;17.05;;;11.13;;
43676;SDS011;29275;48.800;18.102;2023-10-19T08:51:19;18.17;;;10.63;;
43676;SDS011;29275;48.800;18.102;2023-10-19T08:54:22;14.15;;;9.80;;
43676;SDS011;29275;48.800;18.102;2023-10-19T08:57:31;15.98;;;10.30;;
43676;SDS011;29275;48.800;18.102;2023-10-19T09:00:52;18.52;;;12.05;;
43676;SDS011;29275;48.800;18.102;2023-10-19T09:04:18;18.13;;;10.70;;
43676;SDS011;29275;48.800;18.102;2023-10-19T09:07:50;15.45;;;11.25;;
43676;SDS011;29275;48.800;18.102;2023-10-19T09:10:58;13.30;;;10.30;;
43676;SDS011;29275;48.800;18.102;2023-10-19T09:14:09;17.27;;;11.80;;
43676;SDS011;29275;48.800;18.102;2023-10-19T09:17:15;15.95;;;11.25;;
43676;SDS011;29275;48.800;18.102;2023-10-19T09:20:20;15.10;;;10.95;;
43676;SDS011;29275;48.800;18.102;2023-10-19T09:23:32;15.48;;;11.48;;
43676;SDS011;29275;48.800;18.102;2023-10-19T09:26:36;15.80;;;11.65;;
43676;SDS011;29275;48.800;18.102;2023-10-19T09:29:39;14.43;;;10.95;;
43676;SDS011;29275;48.800;18.102;2023-10-19T09:32:43;16.55;;;11.35;;
43676;SDS011;29275;48.800;18.102;2023-10-19T09:35:51;17.10;;;11.35;;
43676;SDS011;29275;48.800;18.102;2023-10-19T09:39:01;14.95;;;10.60;;
43676;SDS011;29275;48.800;18.102;2023-10-19T09:42:06;14.13;;;10.93;;
43676;SDS011;29275;48.800;18.102;2023-10-19T09:45:17;16.98;;;11.68;;
43676;SDS011;29275;48.800;18.102;2023-10-19T09:48:22;14.95;;;11.20;;
43676;SDS011;29275;48.800;18.102;2023-10-19T09:51:34;15.18;;;11.10;;
43676;SDS011;29275;48.800;18.102;2023-10-19T09:54:57;14.00;;;10.20;;
43676;SDS011;29275;48.800;18.102;2023-10-19T09:58:09;15.98;;;10.73;;
43676;SDS011;29275;48.800;18.102;2023-10-19T10:01:18;16.00;;;10.35;;
43676;SDS011;29275;48.800;18.102;2023-10-19T10:04:30;13.60;;;10.90;;
43676;SDS011;29275;48.800;18.102;2023-10-19T10:07:34;14.07;;;9.88;;
43676;SDS011;29275;48.800;18.102;2023-10-19T10:10:42;15.13;;;11.25;;
43676;SDS011;29275;48.800;18.102;2023-10-19T10:13:46;15.07;;;10.77;;
43676;SDS011;29275;48.800;18.102;2023-10-19T10:17:00;15.57;;;12.73;;
43676;SDS011;29275;48.800;18.102;2023-10-19T10:23:20;12.02;;;8.98;;
43676;SDS011;29275;48.800;18.102;2023-10-19T10:30:01;13.88;;;9.15;;
43676;SDS011;29275;48.800;18.102;2023-10-19T10:33:10;14.65;;;10.05;;
43676;SDS011;29275;48.800;18.102;2023-10-19T10:36:57;11.88;;;9.25;;
43676;SDS011;29275;48.800;18.102;2023-10-19T10:40:08;13.52;;;9.63;;
43676;SDS011;29275;48.800;18.102;2023-10-19T10:43:13;12.15;;;8.93;;
43676;SDS011;29275;48.800;18.102;2023-10-19T10:46:16;8.65;;;7.18;;
43676;SDS011;29275;48.800;18.102;2023-10-19T10:49:19;12.38;;;9.05;;
43676;SDS011;29275;48.800;18.102;2023-10-19T10:55:37;12.30;;;8.30;;
43676;SDS011;29275;48.800;18.102;2023-10-19T10:58:43;11.13;;;8.43;;
43676;SDS011;29275;48.800;18.102;2023-10-19T11:01:47;8.77;;;7.88;;
43676;SDS011;29275;48.800;18.102;2023-10-19T11:04:50;11.88;;;8.77;;
43676;SDS011;29275;48.800;18.102;2023-10-19T11:08:06;11.52;;;9.02;;
43676;SDS011;29275;48.800;18.102;2023-10-19T11:11:24;10.93;;;8.38;;
43676;SDS011;29275;48.800;18.102;2023-10-19T11:14:28;13.23;;;8.32;;
43676;SDS011;29275;48.800;18.102;2023-10-19T11:17:32;11.30;;;9.00;;
43676;SDS011;29275;48.800;18.102;2023-10-19T11:20:35;10.30;;;8.40;;
43676;SDS011;29275;48.800;18.102;2023-10-19T11:23:42;12.10;;;8.52;;
43676;SDS011;29275;48.800;18.102;2023-10-19T11:26:50;11.32;;;8.13;;
43676;SDS011;29275;48.800;18.102;2023-10-19T11:30:02;11.25;;;8.40;;
43676;SDS011;29275;48.800;18.102;2023-10-19T11:33:09;9.70;;;8.02;;
43676;SDS011;29275;48.800;18.102;2023-10-19T11:36:17;15.55;;;9.52;;
43676;SDS011;29275;48.800;18.102;2023-10-19T11:39:21;12.50;;;9.32;;
43676;SDS011;29275;48.800;18.102;2023-10-19T11:42:26;15.20;;;10.88;;
43676;SDS011;29275;48.800;18.102;2023-10-19T11:45:29;14.13;;;10.68;;
43676;SDS011;29275;48.800;18.102;2023-10-19T11:48:32;13.23;;;10.52;;
43676;SDS011;29275;48.800;18.102;2023-10-19T11:51:36;12.63;;;9.63;;
43676;SDS011;29275;48.800;18.102;2023-10-19T11:54:39;14.70;;;10.05;;
43676;SDS011;29275;48.800;18.102;2023-10-19T11:57:42;15.20;;;11.27;;
43676;SDS011;29275;48.800;18.102;2023-10-19T12:00:47;14.80;;;10.18;;
43676;SDS011;29275;48.800;18.102;2023-10-19T12:03:50;13.15;;;10.05;;
43676;SDS011;29275;48.800;18.102;2023-10-19T12:06:54;17.48;;;12.57;;
43676;SDS011;29275;48.800;18.102;2023-10-19T12:09:57;16.95;;;12.35;;
43676;SDS011;29275;48.800;18.102;2023-10-19T12:13:06;19.20;;;14.25;;
43676;SDS011;29275;48.800;18.102;2023-10-19T12:16:13;16.20;;;11.27;;
43676;SDS011;29275;48.800;18.102;2023-10-19T12:19:18;13.30;;;9.65;;
43676;SDS011;29275;48.800;18.102;2023-10-19T12:22:22;15.98;;;10.73;;
43676;SDS011;29275;48.800;18.102;2023-10-19T12:25:28;16.98;;;11.25;;
43676;SDS011;29275;48.800;18.102;2023-10-19T12:28:54;16.50;;;11.45;;
43676;SDS011;29275;48.800;18.102;2023-10-19T12:31:57;15.05;;;10.35;;
43676;SDS011;29275;48.800;18.102;2023-10-19T12:35:00;13.20;;;9.10;;
43676;SDS011;29275;48.800;18.102;2023-10-19T12:38:03;14.43;;;9.27;;
43676;SDS011;29275;48.800;18.102;2023-10-19T12:41:08;12.30;;;9.10;;
43676;SDS011;29275;48.800;18.102;2023-10-19T12:44:11;14.27;;;10.02;;
43676;SDS011;29275;48.800;18.102;2023-10-19T12:47:14;12.93;;;9.90;;
43676;SDS011;29275;48.800;18.102;2023-10-19T12:50:21;12.23;;;8.23;;
43676;SDS011;29275;48.800;18.102;2023-10-19T12:53:25;10.98;;;8.45;;
43676;SDS011;29275;48.800;18.102;2023-10-19T12:56:28;12.30;;;8.95;;
43676;SDS011;29275;48.800;18.102;2023-10-19T12:59:31;12.75;;;9.02;;
43676;SDS011;29275;48.800;18.102;2023-10-19T13:02:44;11.45;;;8.25;;
43676;SDS011;29275;48.800;18.102;2023-10-19T13:05:47;14.15;;;8.98;;
43676;SDS011;29275;48.800;18.102;2023-10-19T13:08:53;12.80;;;9.23;;
43676;SDS011;29275;48.800;18.102;2023-10-19T13:11:56;13.95;;;8.80;;
43676;SDS011;29275;48.800;18.102;2023-10-19T13:15:05;13.90;;;10.15;;
43676;SDS011;29275;48.800;18.102;2023-10-19T13:18:16;14.02;;;9.68;;
43676;SDS011;29275;48.800;18.102;2023-10-19T13:21:22;11.97;;;8.97;;
43676;SDS011;29275;48.800;18.102;2023-10-19T13:24:30;16.48;;;10.32;;
43676;SDS011;29275;48.800;18.102;2023-10-19T13:27:34;14.73;;;10.18;;
43676;SDS011;29275;48.800;18.102;2023-10-19T13:30:47;14.25;;;10.10;;
43676;SDS011;29275;48.800;18.102;2023-10-19T13:33:53;14.68;;;11.75;;
43676;SDS011;29275;48.800;18.102;2023-10-19T13:36:57;14.60;;;10.85;;
43676;SDS011;29275;48.800;18.102;2023-10-19T13:40:03;14.27;;;10.77;;
43676;SDS011;29275;48.800;18.102;2023-10-19T13:43:09;16.87;;;11.13;;
43676;SDS011;29275;48.800;18.102;2023-10-19T13:46:16;17.02;;;10.85;;
43676;SDS011;29275;48.800;18.102;2023-10-19T13:49:22;19.15;;;13.80;;
43676;SDS011;29275;48.800;18.102;2023-10-19T13:52:25;15.88;;;11.45;;
43676;SDS011;29275;48.800;18.102;2023-10-19T13:55:28;15.98;;;12.10;;
43676;SDS011;29275;48.800;18.102;2023-10-19T13:58:32;19.17;;;13.25;;
43676;SDS011;29275;48.800;18.102;2023-10-19T14:01:35;16.90;;;11.95;;
43676;SDS011;29275;48.800;18.102;2023-10-19T14:04:38;20.52;;;13.07;;
43676;SDS011;29275;48.800;18.102;2023-10-19T14:07:44;21.00;;;13.85;;
43676;SDS011;29275;48.800;18.102;2023-10-19T14:10:49;17.45;;;13.18;;
43676;SDS011;29275;48.800;18.102;2023-10-19T14:13:54;17.75;;;13.18;;
43676;SDS011;29275;48.800;18.102;2023-10-19T14:16:57;18.88;;;12.63;;
43676;SDS011;29275;48.800;18.102;2023-10-19T14:20:01;17.40;;;13.30;;
43676;SDS011;29275;48.800;18.102;2023-10-19T14:23:04;20.50;;;13.73;;
43676;SDS011;29275;48.800;18.102;2023-10-19T14:26:09;18.83;;;13.68;;
43676;SDS011;29275;48.800;18.102;2023-10-19T14:29:12;18.83;;;14.13;;
43676;SDS011;29275;48.800;18.102;2023-10-19T14:32:16;19.65;;;13.13;;
43676;SDS011;29275;48.800;18.102;2023-10-19T14:35:20;17.35;;;13.30;;
43676;SDS011;29275;48.800;18.102;2023-10-19T14:38:25;26.33;;;18.57;;
43676;SDS011;29275;48.800;18.102;2023-10-19T14:41:32;28.58;;;18.67;;
43676;SDS011;29275;48.800;18.102;2023-10-19T14:44:35;26.00;;;19.83;;
43676;SDS011;29275;48.800;18.102;2023-10-19T14:47:39;29.08;;;18.75;;
43676;SDS011;29275;48.800;18.102;2023-10-19T14:50:46;24.52;;;17.65;;
43676;SDS011;29275;48.800;18.102;2023-10-19T14:53:49;33.33;;;20.65;;
43676;SDS011;29275;48.800;18.102;2023-10-19T14:56:52;39.38;;;23.00;;
43676;SDS011;29275;48.800;18.102;2023-10-19T14:59:59;25.33;;;17.30;;
43676;SDS011;29275;48.800;18.102;2023-10-19T15:03:17;29.23;;;19.90;;
43676;SDS011;29275;48.800;18.102;2023-10-19T15:06:27;29.08;;;19.77;;
43676;SDS011;29275;48.800;18.102;2023-10-19T15:09:37;25.60;;;18.70;;
43676;SDS011;29275;48.800;18.102;2023-10-19T15:12:40;21.42;;;16.67;;
43676;SDS011;29275;48.800;18.102;2023-10-19T15:15:46;27.52;;;18.60;;
43676;SDS011;29275;48.800;18.102;2023-10-19T15:18:52;23.75;;;17.90;;
43676;SDS011;29275;48.800;18.102;2023-10-19T15:21:55;25.65;;;16.48;;
43676;SDS011;29275;48.800;18.102;2023-10-19T15:24:58;26.48;;;16.60;;
43676;SDS011;29275;48.800;18.102;2023-10-19T15:28:07;23.25;;;16.65;;
43676;SDS011;29275;48.800;18.102;2023-10-19T15:31:12;21.58;;;16.13;;
43676;SDS011;29275;48.800;18.102;2023-10-19T15:34:15;23.35;;;15.45;;
43676;SDS011;29275;48.800;18.102;2023-10-19T15:37:22;22.33;;;15.75;;
43676;SDS011;29275;48.800;18.102;2023-10-19T15:40:25;27.17;;;18.83;;
43676;SDS011;29275;48.800;18.102;2023-10-19T15:43:31;30.38;;;20.48;;
43676;SDS011;29275;48.800;18.102;2023-10-19T15:46:34;35.05;;;23.73;;
43676;SDS011;29275;48.800;18.102;2023-10-19T15:49:48;28.88;;;22.05;;
43676;SDS011;29275;48.800;18.102;2023-10-19T15:53:01;29.02;;;19.38;;
43676;SDS011;29275;48.800;18.102;2023-10-19T15:56:04;26.95;;;19.73;;
43676;SDS011;29275;48.800;18.102;2023-10-19T15:59:07;32.83;;;23.05;;
43676;SDS011;29275;48.800;18.102;2023-10-19T16:02:10;57.40;;;34.63;;
43676;SDS011;29275;48.800;18.102;2023-10-19T16:05:14;53.47;;;33.38;;
43676;SDS011;29275;48.800;18.102;2023-10-19T16:08:18;63.08;;;37.47;;
43676;SDS011;29275;48.800;18.102;2023-10-19T16:11:21;59.75;;;34.55;;
43676;SDS011;29275;48.800;18.102;2023-10-19T16:14:26;44.25;;;28.67;;
43676;SDS011;29275;48.800;18.102;2023-10-19T16:17:29;42.78;;;28.05;;
43676;SDS011;29275;48.800;18.102;2023-10-19T16:20:34;60.42;;;33.42;;
43676;SDS011;29275;48.800;18.102;2023-10-19T16:23:37;56.30;;;33.25;;
43676;SDS011;29275;48.800;18.102;2023-10-19T16:26:41;65.57;;;38.13;;
43676;SDS011;29275;48.800;18.102;2023-10-19T16:29:44;66.15;;;39.65;;
43676;SDS011;29275;48.800;18.102;2023-10-19T16:32:47;65.85;;;39.50;;
43676;SDS011;29275;48.800;18.102;2023-10-19T16:35:51;54.47;;;33.15;;
43676;SDS011;29275;48.800;18.102;2023-10-19T16:39:01;39.15;;;23.90;;
43676;SDS011;29275;48.800;18.102;2023-10-19T16:42:05;38.33;;;23.38;;
43676;SDS011;29275;48.800;18.102;2023-10-19T16:45:08;52.95;;;34.58;;
43676;SDS011;29275;48.800;18.102;2023-10-19T16:48:14;69.27;;;41.80;;
43676;SDS011;29275;48.800;18.102;2023-10-19T16:51:17;52.80;;;34.20;;
43676;SDS011;29275;48.800;18.102;2023-10-19T16:54:20;255.02;;;138.68;;
43676;SDS011;29275;48.800;18.102;2023-10-19T16:57:23;83.03;;;53.22;;
43676;SDS011;29275;48.800;18.102;2023-10-19T17:00:30;90.75;;;52.78;;
43676;SDS011;29275;48.800;18.102;2023-10-19T17:03:34;79.80;;;47.50;;
43676;SDS011;29275;48.800;18.102;2023-10-19T17:06:38;61.08;;;39.40;;
43676;SDS011;29275;48.800;18.102;2023-10-19T17:09:45;56.35;;;36.88;;
43676;SDS011;29275;48.800;18.102;2023-10-19T17:12:50;54.67;;;35.22;;
43676;SDS011;29275;48.800;18.102;2023-10-19T17:15:52;49.33;;;33.35;;
43676;SDS011;29275;48.800;18.102;2023-10-19T17:18:57;45.28;;;32.63;;
43676;SDS011;29275;48.800;18.102;2023-10-19T17:22:01;56.30;;;34.70;;
43676;SDS011;29275;48.800;18.102;2023-10-19T17:25:07;50.08;;;32.30;;
43676;SDS011;29275;48.800;18.102;2023-10-19T17:28:10;113.22;;;65.05;;
43676;SDS011;29275;48.800;18.102;2023-10-19T17:31:13;95.15;;;59.65;;
43676;SDS011;29275;48.800;18.102;2023-10-19T17:34:19;72.63;;;48.05;;
43676;SDS011;29275;48.800;18.102;2023-10-19T17:37:22;125.25;;;75.75;;
43676;SDS011;29275;48.800;18.102;2023-10-19T17:40:26;83.28;;;50.08;;
43676;SDS011;29275;48.800;18.102;2023-10-19T17:43:29;52.03;;;34.97;;
43676;SDS011;29275;48.800;18.102;2023-10-19T17:46:33;42.78;;;30.92;;
43676;SDS011;29275;48.800;18.102;2023-10-19T17:49:37;37.53;;;26.92;;
43676;SDS011;29275;48.800;18.102;2023-10-19T17:52:43;86.47;;;50.00;;
43676;SDS011;29275;48.800;18.102;2023-10-19T17:55:46;86.32;;;55.55;;
43676;SDS011;29275;48.800;18.102;2023-10-19T17:58:49;69.65;;;43.70;;
43676;SDS011;29275;48.800;18.102;2023-10-19T18:01:54;49.78;;;34.85;;
43676;SDS011;29275;48.800;18.102;2023-10-19T18:04:58;56.70;;;36.85;;
43676;SDS011;29275;48.800;18.102;2023-10-19T18:08:03;57.83;;;37.00;;
43676;SDS011;29275;48.800;18.102;2023-10-19T18:11:12;58.03;;;37.00;;
43676;SDS011;29275;48.800;18.102;2023-10-19T18:14:16;44.92;;;28.95;;
43676;SDS011;29275;48.800;18.102;2023-10-19T18:17:20;62.90;;;36.28;;